Time;durP1;ratioP1;P1;durP2;ratioP2;P2;SDS_P1;SDS_P2;PMS_P1;PMS_P2;Temp;Humidity;BMP_temperature;BMP_pressure;BME280_temperature;BME280_humidity;BME280_pressure;Samples;Min_cycle;Max_cycle;Signal;HPM_P1;HPM_P2
2022/06/13 00:00:26;;;;;;;17.90;6.60;;;;;;;19.21;100.00;97902.47;5048927;28;20486;-58
2022/06/13 00:02:51;;;;;;;18.52;6.55;;;;;;;19.19;100.00;97907.06;5048702;28;20127;-56
2022/06/13 00:05:17;;;;;;;19.40;7.10;;;;;;;19.00;100.00;97897.88;5047386;28;20039;-58
2022/06/13 00:07:43;;;;;;;17.38;6.60;;;;;;;18.74;100.00;97899.00;5050656;28;20033;-57
2022/06/13 00:10:13;;;;;;;23.52;7.60;;;;;;;18.58;100.00;97901.97;5048282;28;20029;-57
2022/06/13 00:12:40;;;;;;;14.25;5.97;;;;;;;19.28;100.00;97901.03;5051617;28;20845;-56
2022/06/13 00:15:06;;;;;;;17.58;6.45;;;;;;;19.12;100.00;97900.56;5051701;28;20671;-57
2022/06/13 00:17:32;;;;;;;16.98;6.35;;;;;;;18.75;100.00;97916.53;5049150;28;20389;-58
2022/06/13 00:19:57;;;;;;;28.02;8.50;;;;;;;18.40;100.00;97925.34;5049033;28;20534;-56
2022/06/13 00:22:22;;;;;;;18.73;7.30;;;;;;;18.53;100.00;97915.53;5049755;28;20063;-58
2022/06/13 00:24:48;;;;;;;17.58;6.97;;;;;;;18.58;100.00;97918.69;5050408;28;20104;-58
2022/06/13 00:27:13;;;;;;;18.17;7.10;;;;;;;19.02;100.00;97911.84;5048221;28;20123;-57
2022/06/13 00:29:39;;;;;;;16.13;6.85;;;;;;;18.86;100.00;97906.88;5050142;28;20032;-58
2022/06/13 00:32:05;;;;;;;17.05;7.13;;;;;;;19.25;100.00;97901.28;5049334;28;20503;-56
2022/06/13 00:34:31;;;;;;;21.70;7.90;;;;;;;19.22;100.00;97885.63;5052670;28;20037;-56
2022/06/13 00:36:56;;;;;;;22.45;7.20;;;;;;;19.10;100.00;97887.44;5048059;28;20221;-58
2022/06/13 00:39:22;;;;;;;18.17;7.30;;;;;;;18.89;100.00;97897.84;5050216;28;20029;-58
2022/06/13 00:41:47;;;;;;;18.55;6.40;;;;;;;19.47;100.00;97897.78;5050520;28;20122;-56
2022/06/13 00:44:21;;;;;;;17.77;6.43;;;;;;;19.27;100.00;97909.94;5049468;28;20078;-57
2022/06/13 00:46:48;;;;;;;19.27;6.95;;;;;;;18.85;100.00;97910.47;5050871;28;20053;-56
2022/06/13 00:49:27;;;;;;;16.98;6.63;;;;;;;19.09;100.00;97895.50;5047166;28;20066;-57
2022/06/13 00:52:18;;;;;;;21.10;7.70;;;;;;;18.73;100.00;97900.81;5046530;28;20039;-57
2022/06/13 00:54:46;;;;;;;19.27;7.00;;;;;;;18.95;100.00;97900.06;5047321;28;20036;-57
2022/06/13 00:57:24;;;;;;;18.02;6.65;;;;;;;18.93;100.00;97901.97;5045434;28;20033;-57
2022/06/13 00:59:54;;;;;;;24.13;7.88;;;;;;;18.98;100.00;97914.81;5047091;28;20419;-58
2022/06/13 01:02:21;;;;;;;20.77;7.25;;;;;;;18.93;100.00;97907.25;5048129;28;20052;-58
2022/06/13 01:04:50;;;;;;;23.42;7.82;;;;;;;18.74;100.00;97920.16;5051504;28;20032;-57
2022/06/13 01:07:15;;;;;;;18.88;7.28;;;;;;;18.73;100.00;97913.16;5048372;28;20037;-56
2022/06/13 01:12:28;;;;;;;19.23;7.13;;;;;;;19.06;100.00;97908.00;5047651;28;20532;-58
2022/06/13 01:15:04;;;;;;;23.10;7.93;;;;;;;19.04;100.00;97925.78;5049453;28;20713;-56
2022/06/13 01:18:00;;;;;;;21.23;7.68;;;;;;;19.00;100.00;97934.88;5050517;28;20045;-58
2022/06/13 01:20:49;;;;;;;20.02;7.32;;;;;;;19.18;100.00;97940.56;5048321;28;20032;-56
2022/06/13 01:23:24;;;;;;;17.50;7.82;;;;;;;19.13;100.00;97934.78;5048254;28;20021;-58
2022/06/13 01:26:18;;;;;;;18.60;7.30;;;;;;;19.07;100.00;97945.84;5050426;28;20044;-56
2022/06/13 01:28:56;;;;;;;23.00;7.53;;;;;;;18.90;100.00;97984.13;5048940;28;20067;-58
2022/06/13 01:31:27;;;;;;;16.25;6.72;;;;;;;18.84;100.00;98001.28;5046993;28;20041;-57
2022/06/13 01:34:15;;;;;;;22.02;7.70;;;;;;;18.94;100.00;98012.00;5047566;28;20021;-57
2022/06/13 01:36:57;;;;;;;19.60;7.00;;;;;;;18.71;100.00;98023.41;5047937;28;20041;-57
2022/06/13 01:39:55;;;;;;;21.63;7.88;;;;;;;18.67;100.00;98005.16;5046557;28;20063;-58
2022/06/13 01:42:26;;;;;;;16.17;7.10;;;;;;;18.83;100.00;97996.13;5048804;28;20036;-59
2022/06/13 01:44:58;;;;;;;24.65;8.45;;;;;;;18.69;100.00;97995.31;5047655;28;20222;-56
2022/06/13 01:47:35;;;;;;;20.33;7.63;;;;;;;18.77;100.00;97992.09;5047088;28;20961;-56
2022/06/13 01:50:19;;;;;;;28.45;8.60;;;;;;;18.67;100.00;97989.31;5046688;28;20051;-56
2022/06/13 01:53:32;;;;;;;17.45;6.85;;;;;;;18.55;100.00;97974.38;5049010;28;20457;-56
2022/06/13 01:56:09;;;;;;;21.55;7.03;;;;;;;19.00;100.00;97971.88;4993642;28;20036;-57
2022/06/13 01:58:35;;;;;;;25.50;6.97;;;;;;;18.93;100.00;97970.69;5046836;28;20096;-57
2022/06/13 02:01:14;;;;;;;20.60;6.97;;;;;;;18.99;100.00;97967.56;5048384;28;20473;-57
2022/06/13 02:03:50;;;;;;;22.42;6.90;;;;;;;18.72;100.00;97969.63;5048553;28;20033;-58
2022/06/13 02:06:29;;;;;;;18.88;6.53;;;;;;;18.63;100.00;97969.34;5047813;28;20033;-57
2022/06/13 02:09:19;;;;;;;20.73;6.30;;;;;;;18.30;100.00;97970.03;5046982;28;20108;-57
2022/06/13 02:11:48;;;;;;;18.98;6.43;;;;;;;18.39;100.00;97965.88;5049567;28;20052;-58
2022/06/13 02:14:31;;;;;;;17.25;6.10;;;;;;;18.29;100.00;97971.84;5048099;28;20195;-57
2022/06/13 02:17:05;;;;;;;18.25;6.10;;;;;;;18.41;100.00;97958.69;5049124;28;20122;-57
2022/06/13 02:19:35;;;;;;;17.85;5.97;;;;;;;18.47;100.00;97948.53;5048356;28;20033;-57
2022/06/13 02:22:11;;;;;;;16.98;5.88;;;;;;;18.35;100.00;97945.94;5046131;28;20156;-57
2022/06/13 02:24:47;;;;;;;18.73;6.15;;;;;;;18.33;100.00;97937.31;5047828;28;20115;-57
2022/06/13 02:27:15;;;;;;;18.30;6.00;;;;;;;18.29;100.00;97948.06;5046907;28;20044;-57
2022/06/13 02:29:58;;;;;;;18.45;5.88;;;;;;;17.93;100.00;97943.66;5049084;28;20028;-58
2022/06/13 02:32:36;;;;;;;16.83;5.93;;;;;;;17.86;100.00;97932.69;5049193;28;20072;-57
2022/06/13 02:35:12;;;;;;;18.70;6.00;;;;;;;18.26;100.00;97932.44;5047911;28;20321;-58
2022/06/13 02:37:46;;;;;;;18.15;5.95;;;;;;;17.91;100.00;97941.13;5049980;28;20036;-58
2022/06/13 02:40:29;;;;;;;22.63;6.22;;;;;;;17.90;100.00;97936.81;5048231;28;20017;-58
2022/06/13 02:43:03;;;;;;;14.90;5.43;;;;;;;17.90;100.00;97944.75;5049103;28;20029;-59
2022/06/13 02:45:31;;;;;;;17.95;5.82;;;;;;;17.60;100.00;97954.81;5049235;28;20041;-57
2022/06/13 02:47:59;;;;;;;19.48;5.95;;;;;;;17.90;100.00;97955.31;5049312;28;20021;-57
2022/06/13 02:50:39;;;;;;;19.58;6.18;;;;;;;17.66;100.00;97962.28;5046337;28;20021;-57
2022/06/13 02:53:25;;;;;;;22.80;6.38;;;;;;;17.59;100.00;97951.31;5047263;28;20601;-58
2022/06/13 02:56:03;;;;;;;19.00;5.95;;;;;;;17.61;100.00;97964.38;5047445;28;20041;-56
2022/06/13 02:58:42;;;;;;;19.45;5.47;;;;;;;17.38;100.00;97964.19;5048582;28;20044;-58
2022/06/13 03:01:16;;;;;;;19.63;6.05;;;;;;;18.04;100.00;97964.00;5047227;28;20043;-56
2022/06/13 03:04:16;;;;;;;17.35;5.57;;;;;;;17.95;100.00;97976.06;5048904;28;20031;-56
2022/06/13 03:06:53;;;;;;;17.63;6.00;;;;;;;17.55;100.00;97968.28;5055733;28;20045;-57
2022/06/13 03:09:27;;;;;;;19.73;6.05;;;;;;;17.65;100.00;97976.44;5047132;28;20032;-56
2022/06/13 03:12:28;;;;;;;20.23;6.15;;;;;;;17.70;100.00;97976.94;5048708;28;20041;-59
2022/06/13 03:15:12;;;;;;;19.52;6.05;;;;;;;17.76;100.00;97984.41;5018979;28;20065;-59
2022/06/13 03:17:37;;;;;;;19.42;6.18;;;;;;;17.51;100.00;97996.66;5049580;28;20049;-56
2022/06/13 03:20:16;;;;;;;29.60;7.25;;;;;;;17.60;100.00;98007.53;5049931;28;20043;-58
2022/06/13 03:23:11;;;;;;;20.77;6.45;;;;;;;17.36;100.00;97997.75;5050904;28;20056;-57
2022/06/13 03:25:49;;;;;;;22.52;6.47;;;;;;;17.41;100.00;97995.63;5051635;28;20036;-57
2022/06/13 03:28:26;;;;;;;23.25;6.57;;;;;;;17.25;100.00;97995.84;5054113;28;20112;-57
2022/06/13 03:31:10;;;;;;;18.95;6.25;;;;;;;17.26;100.00;98001.94;5049778;28;20025;-56
2022/06/13 03:33:41;;;;;;;17.08;5.65;;;;;;;17.34;100.00;97999.66;5055087;28;20028;-56
2022/06/13 03:36:15;;;;;;;18.17;6.38;;;;;;;17.12;100.00;97995.81;5050043;28;20116;-58
2022/06/13 03:38:53;;;;;;;24.98;7.40;;;;;;;17.00;100.00;98001.09;5052004;28;20689;-56
2022/06/13 03:41:24;;;;;;;24.17;6.63;;;;;;;17.28;100.00;97989.53;5047664;28;20064;-57
2022/06/13 03:43:58;;;;;;;20.88;6.80;;;;;;;17.24;100.00;97996.81;5050122;28;20052;-57
2022/06/13 03:46:38;;;;;;;24.48;6.63;;;;;;;17.24;100.00;97993.31;5051187;28;20041;-56
2022/06/13 03:49:11;;;;;;;16.58;5.95;;;;;;;17.08;100.00;97994.34;5050142;28;20035;-55
2022/06/13 03:51:44;;;;;;;22.30;6.93;;;;;;;17.17;100.00;97997.31;5050651;28;20040;-57
2022/06/13 03:54:41;;;;;;;18.50;6.65;;;;;;;17.14;100.00;98006.28;5051186;28;20119;-57
2022/06/13 03:57:14;;;;;;;25.23;6.93;;;;;;;17.29;100.00;98004.38;5035967;28;20037;-57
2022/06/13 03:59:47;;;;;;;20.48;6.78;;;;;;;17.25;100.00;98002.91;5050054;28;20033;-57
2022/06/13 04:02:16;;;;;;;21.95;6.85;;;;;;;17.03;100.00;97996.44;5058169;28;20048;-56
2022/06/13 04:04:45;;;;;;;17.15;6.22;;;;;;;17.50;100.00;97995.00;5052365;28;20517;-56
2022/06/13 04:07:11;;;;;;;22.90;6.47;;;;;;;17.31;100.00;97999.84;5049445;28;20045;-56
2022/06/13 04:09:45;;;;;;;21.15;6.80;;;;;;;17.48;100.00;98001.34;5052100;28;20038;-56
2022/06/13 04:12:23;;;;;;;16.58;6.22;;;;;;;17.85;100.00;97999.63;5046832;28;20065;-57
2022/06/13 04:15:01;;;;;;;20.38;6.20;;;;;;;19.05;100.00;97990.88;5050932;28;20221;-58
2022/06/13 04:18:05;;;;;;;22.00;6.18;;;;;;;19.21;100.00;97985.28;5051189;28;20445;-56
2022/06/13 04:20:54;;;;;;;18.88;5.80;;;;;;;18.98;100.00;97981.72;5047770;28;20220;-57
2022/06/13 04:23:33;;;;;;;18.73;6.03;;;;;;;18.69;100.00;97984.75;5049080;28;20107;-57
2022/06/13 04:26:20;;;;;;;18.92;5.65;;;;;;;19.99;100.00;97969.56;5048616;28;20048;-56
2022/06/13 04:29:04;;;;;;;23.45;6.70;;;;;;;20.09;100.00;97970.50;5051127;28;20093;-57
2022/06/13 04:31:31;;;;;;;22.88;6.30;;;;;;;20.01;100.00;97975.56;5048911;28;20037;-57
2022/06/13 04:34:06;;;;;;;19.77;6.22;;;;;;;19.97;100.00;97972.31;5049425;28;20039;-58
2022/06/13 04:36:33;;;;;;;22.55;6.82;;;;;;;19.44;100.00;97980.84;5049357;28;20048;-56
2022/06/13 04:39:04;;;;;;;23.52;6.85;;;;;;;19.17;100.00;97985.63;5051198;28;20544;-58
2022/06/13 04:41:33;;;;;;;21.92;6.05;;;;;;;19.40;100.00;97989.16;5049076;28;20055;-57
2022/06/13 04:44:02;;;;;;;21.65;6.45;;;;;;;19.10;100.00;97990.56;5049334;28;20775;-56
2022/06/13 04:46:29;;;;;;;21.98;6.20;;;;;;;19.17;100.00;97990.91;5049976;28;20901;-58
2022/06/13 04:48:58;;;;;;;27.08;6.47;;;;;;;20.12;100.00;97994.09;5049572;28;20478;-58
2022/06/13 04:51:31;;;;;;;15.90;5.03;;;;;;;20.62;100.00;97998.06;5048424;28;20124;-57
2022/06/13 04:54:05;;;;;;;24.13;6.32;;;;;;;20.67;100.00;97985.28;5049982;28;20024;-57
2022/06/13 04:56:31;;;;;;;21.60;5.55;;;;;;;21.62;100.00;97992.38;5049370;28;20033;-57
2022/06/13 04:58:59;;;;;;;14.05;4.45;;;;;;;22.88;100.00;97997.97;5049763;28;20056;-57
2022/06/13 05:01:45;;;;;;;16.08;4.90;;;;;;;23.28;100.00;98009.41;5048619;28;20065;-59
2022/06/13 05:04:14;;;;;;;17.73;5.53;;;;;;;23.63;100.00;98000.78;5049522;28;20033;-57
2022/06/13 05:06:45;;;;;;;16.55;4.72;;;;;;;23.15;100.00;98008.91;5049889;28;20051;-57
2022/06/13 05:09:10;;;;;;;14.05;5.13;;;;;;;24.95;100.00;98004.97;5049350;28;20040;-57
2022/06/13 05:11:41;;;;;;;14.50;4.55;;;;;;;25.81;84.39;97996.22;5049205;28;20043;-58
2022/06/13 05:14:15;;;;;;;14.82;4.70;;;;;;;25.31;91.85;98004.91;5050282;28;20039;-56
2022/06/13 05:16:59;;;;;;;10.35;3.90;;;;;;;27.68;68.25;98009.19;5048753;28;20087;-59
2022/06/13 05:19:35;;;;;;;15.98;4.38;;;;;;;26.60;68.87;98018.25;5050685;28;20055;-58
2022/06/13 05:22:13;;;;;;;11.73;4.00;;;;;;;28.09;61.99;98022.50;5047921;28;20041;-58
2022/06/13 05:24:47;;;;;;;10.52;3.58;;;;;;;30.06;55.25;98022.84;5047763;28;20056;-58
2022/06/13 05:27:12;;;;;;;13.48;3.67;;;;;;;29.89;51.14;98028.41;5047167;28;20498;-58
2022/06/13 05:29:37;;;;;;;9.18;3.58;;;;;;;27.33;52.89;98040.72;5048909;28;20025;-58
2022/06/13 05:32:07;;;;;;;11.60;3.33;;;;;;;30.67;46.63;98033.31;5048433;28;20037;-57
2022/06/13 05:34:37;;;;;;;10.57;3.42;;;;;;;30.26;45.22;98028.50;5050752;28;20064;-60
2022/06/13 05:37:03;;;;;;;8.23;3.28;;;;;;;28.61;47.29;98029.97;5048910;28;20032;-59
2022/06/13 05:39:29;;;;;;;6.90;2.90;;;;;;;28.54;46.02;98029.00;5056961;28;20052;-59
2022/06/13 05:41:54;;;;;;;7.13;3.08;;;;;;;32.11;43.10;98021.47;5047607;28;20045;-58
2022/06/13 05:44:20;;;;;;;10.88;4.05;;;;;;;29.27;43.53;98024.13;5049087;28;20039;-59
2022/06/13 05:46:45;;;;;;;12.50;3.42;;;;;;;31.12;42.84;98034.03;5046806;28;20129;-58
2022/06/13 05:49:14;;;;;;;9.20;3.40;;;;;;;28.17;45.71;98033.19;5045023;28;20496;-60
2022/06/13 05:51:41;;;;;;;8.80;3.40;;;;;;;28.05;45.61;98026.56;5043522;28;20141;-59
2022/06/13 05:54:09;;;;;;;9.07;3.10;;;;;;;28.46;44.29;98029.03;5043662;28;20094;-57
2022/06/13 05:56:36;;;;;;;11.48;3.53;;;;;;;29.83;41.16;98022.94;5041987;28;20055;-58
2022/06/13 05:59:01;;;;;;;10.02;3.60;;;;;;;30.75;41.66;98033.19;5045399;28;20029;-58
2022/06/13 06:01:27;;;;;;;8.93;3.25;;;;;;;32.01;39.39;98030.72;5043499;28;20041;-59
2022/06/13 06:03:52;;;;;;;7.32;2.78;;;;;;;30.30;40.84;98037.84;5044352;28;20035;-58
2022/06/13 06:06:21;;;;;;;6.82;2.80;;;;;;;30.53;39.32;98041.25;5044858;28;20043;-59
2022/06/13 06:08:48;;;;;;;10.13;3.13;;;;;;;29.93;41.75;98035.09;5044791;28;20687;-57
2022/06/13 06:11:13;;;;;;;6.78;2.90;;;;;;;31.33;38.21;98050.13;5045823;28;20521;-58
2022/06/13 06:13:38;;;;;;;6.35;2.92;;;;;;;30.47;40.73;98041.19;5045530;28;20024;-60
2022/06/13 06:16:04;;;;;;;10.50;2.78;;;;;;;32.62;37.56;98042.66;5043049;28;20475;-59
2022/06/13 06:18:30;;;;;;;7.03;2.70;;;;;;;32.54;36.65;98045.50;5044834;28;20024;-59
2022/06/13 06:20:56;;;;;;;8.82;2.70;;;;;;;31.99;37.56;98046.28;5044789;28;20198;-59
2022/06/13 06:23:21;;;;;;;8.00;2.40;;;;;;;33.58;35.34;98041.50;5047014;28;20463;-59
2022/06/13 06:25:48;;;;;;;6.20;2.83;;;;;;;31.97;38.04;98053.72;5044401;28;20051;-58
2022/06/13 06:28:21;;;;;;;9.38;2.85;;;;;;;31.88;38.01;98049.53;5045926;28;20124;-59
2022/06/13 06:30:47;;;;;;;7.72;2.90;;;;;;;30.60;38.35;98046.69;5043206;28;20044;-60
2022/06/13 06:33:13;;;;;;;8.48;2.70;;;;;;;32.55;36.00;98052.56;5044002;28;20037;-60
2022/06/13 06:35:40;;;;;;;5.78;2.40;;;;;;;33.96;34.44;98052.50;5044442;28;20101;-59
2022/06/13 06:38:06;;;;;;;6.32;2.45;;;;;;;32.61;36.39;98054.50;5044921;28;20115;-62
2022/06/13 06:40:32;;;;;;;10.07;2.63;;;;;;;32.25;35.37;98060.97;5043507;28;20131;-59
2022/06/13 06:42:58;;;;;;;9.05;2.60;;;;;;;33.17;34.18;98059.59;5044100;28;20028;-59
2022/06/13 06:45:25;;;;;;;6.13;2.45;;;;;;;32.16;35.14;98059.47;5045734;28;20071;-59
2022/06/13 06:47:51;;;;;;;6.07;2.40;;;;;;;32.13;35.36;98054.47;5045694;28;20021;-61
2022/06/13 06:50:20;;;;;;;6.28;2.65;;;;;;;32.50;34.16;98052.34;5043298;28;20040;-59
2022/06/13 06:52:46;;;;;;;7.97;2.72;;;;;;;33.42;32.68;98051.72;5048655;28;20032;-59
2022/06/13 07:00:45;;;;;;;5.95;2.50;;;;;;;34.78;31.82;98060.16;5047406;28;20043;-60
2022/06/13 07:03:11;;;;;;;5.72;2.53;;;;;;;33.20;34.03;98053.81;5049360;28;20021;-58
2022/06/13 07:05:36;;;;;;;7.63;3.00;;;;;;;33.20;32.65;98059.22;5048931;28;20923;-61
2022/06/13 07:08:02;;;;;;;7.40;2.70;;;;;;;34.83;31.09;98063.06;5049171;28;20016;-61
2022/06/13 07:10:27;;;;;;;12.40;2.42;;;;;;;33.21;33.71;98062.72;5046442;28;20052;-59
2022/06/13 07:12:52;;;;;;;9.77;2.60;;;;;;;32.87;34.84;98059.13;5047947;28;20032;-60
2022/06/13 07:15:18;;;;;;;5.85;2.38;;;;;;;32.28;33.89;98057.88;5047304;28;20402;-60
2022/06/13 07:17:44;;;;;;;6.35;2.55;;;;;;;33.21;31.77;98062.72;5050358;28;20041;-58
2022/06/13 07:20:11;;;;;;;6.57;2.40;;;;;;;33.62;32.22;98061.72;5046524;28;20032;-61
2022/06/13 07:22:40;;;;;;;6.47;2.35;;;;;;;34.49;31.08;98072.38;5048541;28;20489;-60
2022/06/13 07:25:09;;;;;;;6.22;2.55;;;;;;;33.29;31.89;98073.38;5048717;28;20596;-58
2022/06/13 07:27:34;;;;;;;10.13;2.60;;;;;;;34.18;31.49;98063.91;5048496;28;20035;-57
2022/06/13 07:29:59;;;;;;;8.73;3.17;;;;;;;34.23;32.65;98066.00;5047776;28;20028;-58
2022/06/13 07:32:25;;;;;;;7.05;2.50;;;;;;;31.61;34.58;98065.53;5048966;28;20110;-59
2022/06/13 07:34:52;;;;;;;5.70;2.40;;;;;;;34.56;31.78;98062.34;5047481;28;20028;-60
2022/06/13 07:40:10;;;;;;;6.40;2.50;;;;;;;33.14;32.10;98067.28;5047917;28;20054;-59
2022/06/13 07:42:43;;;;;;;6.72;2.45;;;;;;;32.36;32.56;98071.19;5045138;28;20974;-58
2022/06/13 07:45:16;;;;;;;5.50;2.25;;;;;;;32.87;33.53;98058.31;5047221;28;20119;-58
2022/06/13 07:47:42;;;;;;;5.63;2.60;;;;;;;32.87;33.95;98074.53;5048579;28;20031;-59
2022/06/13 07:50:13;;;;;;;9.32;2.80;;;;;;;31.92;33.18;98075.06;5046379;28;20777;-57
2022/06/13 07:52:39;;;;;;;6.43;2.78;;;;;;;32.34;33.49;98064.34;5046762;28;20033;-59
2022/06/13 07:55:05;;;;;;;4.85;2.13;;;;;;;32.54;33.27;98069.81;5046623;28;20017;-59
2022/06/13 07:57:31;;;;;;;6.03;2.50;;;;;;;32.55;33.71;98074.16;5047404;28;20064;-58
2022/06/13 07:59:56;;;;;;;6.90;3.03;;;;;;;33.72;31.54;98055.91;5047927;28;20116;-60
2022/06/13 08:02:21;;;;;;;6.30;2.38;;;;;;;32.47;33.01;98062.50;5046718;28;20411;-60
2022/06/13 08:04:47;;;;;;;6.13;2.53;;;;;;;32.29;33.27;98078.41;5046020;28;20032;-57
2022/06/13 08:07:16;;;;;;;7.70;2.78;;;;;;;32.90;31.92;98060.59;5047668;28;20037;-58
2022/06/13 08:09:41;;;;;;;5.20;2.60;;;;;;;34.04;31.20;98065.00;5046906;28;20035;-58
2022/06/13 08:12:09;;;;;;;6.18;2.53;;;;;;;32.25;33.90;98071.75;5048905;28;20033;-59
2022/06/13 08:14:34;;;;;;;6.95;2.65;;;;;;;33.09;32.96;98073.31;5047741;28;20032;-60
2022/06/13 08:16:59;;;;;;;8.15;2.85;;;;;;;33.02;32.55;98067.88;5048890;28;20456;-57
2022/06/13 08:19:25;;;;;;;7.78;2.45;;;;;;;33.10;31.20;98069.53;5046852;28;20108;-60
2022/06/13 08:21:51;;;;;;;11.43;2.80;;;;;;;34.46;30.03;98075.50;5046058;28;20138;-58
2022/06/13 08:24:17;;;;;;;8.27;2.83;;;;;;;32.82;31.18;98064.31;5048833;28;20487;-58
2022/06/13 08:26:44;;;;;;;8.00;2.80;;;;;;;34.35;30.21;98077.84;5045352;28;20497;-59
2022/06/13 08:29:10;;;;;;;7.93;2.67;;;;;;;33.79;31.19;98078.34;5046825;28;20068;-57
2022/06/13 08:31:36;;;;;;;6.80;2.70;;;;;;;33.78;31.23;98068.56;5047194;28;20136;-59
2022/06/13 08:34:04;;;;;;;6.45;2.42;;;;;;;36.28;28.83;98075.63;5048102;28;20037;-57
2022/06/13 08:36:30;;;;;;;7.13;2.47;;;;;;;35.26;29.83;98073.22;5047819;28;20037;-58
2022/06/13 08:38:55;;;;;;;7.72;2.53;;;;;;;31.49;32.99;98084.09;5044735;28;20025;-57
2022/06/13 08:41:32;;;;;;;8.48;2.60;;;;;;;30.09;34.99;98081.63;5044202;28;20243;-58
2022/06/13 08:44:18;;;;;;;10.18;3.30;;;;;;;31.36;34.80;98080.41;5049389;28;20021;-57
2022/06/13 08:47:02;;;;;;;10.40;2.85;;;;;;;29.30;37.09;98090.09;5046200;28;20430;-57
2022/06/13 08:49:44;;;;;;;12.77;3.08;;;;;;;30.14;36.78;98087.28;5047160;28;20632;-57
2022/06/13 08:52:16;;;;;;;10.23;3.30;;;;;;;31.63;34.53;98086.91;5044722;28;20128;-59
2022/06/13 08:54:42;;;;;;;;;;;;;;;31.10;34.45;98085.38;5048232;28;20115;-57
2022/06/13 08:57:10;;;;;;;9.45;2.78;;;;;;;31.12;35.71;98087.91;5045408;28;19986;-58
2022/06/13 08:59:45;;;;;;;9.20;3.08;;;;;;;29.44;38.89;98099.22;5047305;28;20029;-58
2022/06/13 09:02:22;;;;;;;10.70;2.92;;;;;;;29.57;36.87;98104.81;5046378;28;20120;-58
2022/06/13 09:04:56;;;;;;;10.07;3.03;;;;;;;30.67;36.39;98108.69;5047637;28;20121;-59
2022/06/13 09:07:37;;;;;;;10.50;3.08;;;;;;;30.17;36.97;98106.59;5047163;28;20044;-58
2022/06/13 09:10:13;;;;;;;8.95;3.15;;;;;;;31.67;35.88;98117.81;5044591;28;20119;-59
2022/06/13 09:13:00;;;;;;;9.50;3.08;;;;;;;30.43;36.30;98117.94;5047375;28;20044;-58
2022/06/13 09:15:42;;;;;;;9.00;3.08;;;;;;;30.27;36.27;98119.78;5044801;28;20127;-58
2022/06/13 09:18:23;;;;;;;8.93;2.90;;;;;;;29.55;38.80;98112.22;5048134;28;20155;-58
2022/06/13 09:21:05;;;;;;;12.25;3.10;;;;;;;31.38;36.95;98118.81;5046203;28;20518;-58
2022/06/13 09:24:02;;;;;;;10.07;3.15;;;;;;;30.33;37.09;98105.59;5046405;28;20060;-58
2022/06/13 09:26:35;;;;;;;10.20;3.40;;;;;;;31.25;36.27;98106.88;5044466;28;20040;-58
2022/06/13 09:29:14;;;;;;;9.02;2.97;;;;;;;31.67;35.72;98110.59;5043861;28;20064;-57
2022/06/13 09:31:45;;;;;;;9.43;2.95;;;;;;;29.57;38.02;98104.81;5044023;28;20036;-58
2022/06/13 09:34:14;;;;;;;7.10;2.88;;;;;;;28.18;40.31;98115.31;5046844;28;20669;-57
2022/06/13 09:36:47;;;;;;;13.20;3.38;;;;;;;28.97;39.41;98109.13;5043950;28;20424;-57
2022/06/13 09:39:15;;;;;;;10.98;3.60;;;;;;;28.06;39.82;98116.69;5043251;28;20022;-56
2022/06/13 09:41:59;;;;;;;11.10;3.40;;;;;;;29.68;38.65;98117.81;5043716;28;20454;-58
2022/06/13 09:44:43;;;;;;;11.32;3.20;;;;;;;31.00;36.79;98117.19;5046918;28;20032;-58
2022/06/13 09:47:26;;;;;;;9.13;3.20;;;;;;;29.39;36.20;98119.41;5045418;28;20041;-58
2022/06/13 09:50:04;;;;;;;8.40;3.05;;;;;;;30.59;34.84;98115.03;5044106;28;20137;-60
2022/06/13 09:52:35;;;;;;;9.68;2.88;;;;;;;27.50;38.22;98117.41;5046449;28;20066;-57
2022/06/13 09:55:03;;;;;;;9.50;3.10;;;;;;;28.63;38.82;98129.91;5044646;28;20033;-57
2022/06/13 09:57:54;;;;;;;9.18;3.05;;;;;;;29.55;36.07;98125.66;5047137;28;20044;-57
2022/06/13 10:00:29;;;;;;;11.48;3.13;;;;;;;30.28;34.59;98113.34;5030581;28;20490;-58
2022/06/13 10:03:05;;;;;;;8.77;3.15;;;;;;;30.99;33.15;98104.75;5047818;28;20016;-58
2022/06/13 10:05:36;;;;;;;11.50;3.30;;;;;;;30.45;33.90;98113.19;5045908;28;20033;-57
2022/06/13 10:08:15;;;;;;;8.23;2.97;;;;;;;29.85;36.11;98115.00;5049321;28;20422;-58
2022/06/13 10:11:12;;;;;;;8.77;3.03;;;;;;;29.94;33.90;98111.19;5044090;28;20403;-59
2022/06/13 10:13:56;;;;;;;10.18;3.03;;;;;;;30.40;34.99;98116.44;5046774;28;20067;-58
2022/06/13 10:16:39;;;;;;;9.93;3.30;;;;;;;30.63;34.90;98110.09;5045678;28;20068;-58
2022/06/13 10:19:28;;;;;;;11.48;3.15;;;;;;;29.49;35.67;98123.69;5044282;28;20703;-58
2022/06/13 10:22:04;;;;;;;13.30;3.60;;;;;;;28.15;38.10;98125.56;5043489;28;20047;-58
2022/06/13 10:24:32;;;;;;;10.88;3.00;;;;;;;28.83;37.00;98114.22;5046273;28;20686;-57
2022/06/13 10:27:04;;;;;;;9.02;2.90;;;;;;;29.85;35.23;98117.69;5052828;28;20052;-58
2022/06/13 10:29:31;;;;;;;9.23;3.00;;;;;;;29.98;34.44;98107.97;5045764;28;20028;-58
2022/06/13 10:31:59;;;;;;;11.02;3.08;;;;;;;29.60;34.29;98101.78;5045515;28;20048;-59
2022/06/13 10:34:41;;;;;;;10.30;3.45;;;;;;;32.35;32.46;98112.72;5045459;28;20032;-58
2022/06/13 10:37:45;;;;;;;8.05;3.00;;;;;;;28.41;35.83;98119.91;5045270;28;20037;-57
2022/06/13 10:40:11;;;;;;;9.23;3.38;;;;;;;29.18;35.08;98116.53;5030415;28;20040;-60
2022/06/13 10:42:38;;;;;;;11.95;3.20;;;;;;;29.71;34.54;98122.00;5046263;28;20078;-58
2022/06/13 10:45:10;;;;;;;11.45;3.40;;;;;;;30.28;34.17;98128.66;5044783;28;20048;-57
2022/06/13 10:47:51;;;;;;;10.77;3.33;;;;;;;30.50;33.15;98118.84;5045186;28;20104;-59
2022/06/13 10:50:29;;;;;;;7.82;3.00;;;;;;;29.67;32.90;98116.16;5042611;28;20152;-58
2022/06/13 10:53:01;;;;;;;9.13;2.80;;;;;;;29.98;32.78;98117.91;5044363;28;20064;-59
2022/06/13 10:55:33;;;;;;;18.55;3.47;;;;;;;31.03;31.34;98121.38;5046045;28;20066;-58
2022/06/13 10:58:04;;;;;;;11.65;3.03;;;;;;;30.31;32.59;98128.28;5046258;28;20040;-57
2022/06/13 11:00:30;;;;;;;10.45;3.30;;;;;;;30.70;32.69;98128.00;5043568;28;20029;-57
2022/06/13 11:03:14;;;;;;;6.53;2.50;;;;;;;29.13;33.02;98121.56;5043930;28;20054;-57
2022/06/13 11:05:54;;;;;;;8.85;2.80;;;;;;;27.46;36.04;98131.28;5043536;28;20037;-57
2022/06/13 11:08:20;;;;;;;9.13;2.80;;;;;;;28.45;33.66;98131.97;5044409;28;20021;-58
2022/06/13 11:10:53;;;;;;;12.75;2.97;;;;;;;27.90;33.87;98135.47;5042546;28;20064;-58
2022/06/13 11:13:29;;;;;;;12.55;3.40;;;;;;;27.77;33.39;98134.13;5046484;28;20608;-57
2022/06/13 11:24:42;;;;;;;9.05;2.85;;;;;;;28.70;33.57;98156.06;5044216;28;20067;-58
2022/06/13 11:27:41;;;;;;;9.85;2.85;;;;;;;29.10;33.98;98143.44;5042552;28;20574;-59
2022/06/13 11:30:25;;;;;;;9.02;3.13;;;;;;;29.15;33.35;98146.44;5044522;28;20043;-60
2022/06/13 11:33:00;;;;;;;12.68;2.95;;;;;;;28.62;33.92;98149.72;5044879;28;20044;-58
2022/06/13 11:35:31;;;;;;;10.13;2.90;;;;;;;28.60;35.34;98157.13;5042466;28;20075;-57
2022/06/13 11:38:12;;;;;;;9.00;2.80;;;;;;;27.74;35.54;98145.19;5046932;28;20021;-58
2022/06/13 11:40:37;;;;;;;10.98;3.50;;;;;;;27.35;36.21;98153.91;5047679;28;20033;-59
2022/06/13 11:43:03;;;;;;;8.65;3.00;;;;;;;27.27;36.46;98160.06;5048074;28;20032;-58
2022/06/13 11:45:29;;;;;;;8.65;2.80;;;;;;;26.45;36.62;98169.59;5047435;28;20067;-57
2022/06/13 11:47:54;;;;;;;10.98;3.30;;;;;;;27.03;35.39;98166.19;5049377;28;20025;-59
2022/06/13 11:50:26;;;;;;;12.60;3.10;;;;;;;26.89;36.08;98164.13;5046828;28;20199;-59
2022/06/13 11:56:09;;;;;;;10.40;3.08;;;;;;;27.79;35.83;98160.75;5047516;28;20043;-60
2022/06/13 11:58:40;;;;;;;10.68;3.20;;;;;;;27.56;33.83;98157.94;5044397;28;20041;-57
2022/06/13 12:01:22;;;;;;;12.50;3.47;;;;;;;27.62;34.94;98151.88;5045030;28;20037;-59
2022/06/13 12:04:11;;;;;;;13.25;3.47;;;;;;;26.91;33.49;98156.81;5048353;28;20074;-59
2022/06/13 12:06:42;;;;;;;11.32;2.83;;;;;;;28.16;34.40;98154.88;5037135;28;20048;-57
2022/06/13 12:09:19;;;;;;;11.02;2.90;;;;;;;28.19;34.23;98153.69;5048915;28;20031;-56
2022/06/13 12:11:56;;;;;;;6.38;2.30;;;;;;;26.88;33.16;98173.19;5046630;28;20032;-58
2022/06/13 12:14:25;;;;;;;13.52;2.90;;;;;;;27.63;33.62;98165.13;5047181;28;20074;-59